DE17H UBBB-UNOO
Flight info
| Callsign | DE17H |
|---|---|
| Flight time | 3h 12m |
| Altitude | 38000 |
| Route | BETEK N55 TITIL N161 MASAV N55 DAKIN N990 ALODA ALODA5B |
| Aircraft | C750/M-SBDE3FGHRWXY/S |
Departure
| Time | 2026-04-29 10:23 |
|---|---|
| Airport | Heydar Aliyev International Airport (UBBB) |
Arrival
| Time | 2026-04-29 13:35 |
|---|---|
| Airport | Omsk Central Airport (UNOO) |
| Time | Latitude | Longitude | Altitude | Speed | Heading |
|---|---|---|---|---|---|
| 2026-04-29 10:22 | 40.55277 | 50.02330 | 2931 ft | 261 kts | 354° |
| 2026-04-29 10:23 | 40.57160 | 50.02139 | 3285 ft | 283 kts | 355° |
| 2026-04-29 10:23 | 40.59211 | 50.02185 | 3593 ft | 302 kts | 12° |
| 2026-04-29 10:23 | 40.61048 | 50.03542 | 3927 ft | 319 kts | 43° |
| 2026-04-29 10:23 | 40.62202 | 50.06085 | 4264 ft | 335 kts | 72° |
| 2026-04-29 10:24 | 40.62328 | 50.09178 | 4570 ft | 350 kts | 98° |
| 2026-04-29 10:24 | 40.61384 | 50.12213 | 4558 ft | 371 kts | 124° |
| 2026-04-29 10:24 | 40.59972 | 50.15082 | 4525 ft | 367 kts | 113° |
| 2026-04-29 10:24 | 40.59577 | 50.18278 | 4481 ft | 351 kts | 84° |
| 2026-04-29 10:25 | 40.59744 | 50.21372 | 4614 ft | 334 kts | 96° |
| 2026-04-29 10:25 | 40.59262 | 50.24335 | 4906 ft | 324 kts | 97° |
| 2026-04-29 10:25 | 40.59045 | 50.27223 | 5176 ft | 321 kts | 98° |
| 2026-04-29 10:25 | 40.58954 | 50.30144 | 5411 ft | 320 kts | 78° |
| 2026-04-29 10:26 | 40.59916 | 50.32734 | 5730 ft | 316 kts | 52° |
| 2026-04-29 10:26 | 40.61078 | 50.35134 | 6038 ft | 314 kts | 61° |
| 2026-04-29 10:26 | 40.62186 | 50.37648 | 6323 ft | 314 kts | 59° |
| 2026-04-29 10:26 | 40.63263 | 50.40117 | 6590 ft | 314 kts | 60° |
| 2026-04-29 10:27 | 40.66457 | 50.43692 | 7137 ft | 311 kts | 12° |
| 2026-04-29 10:27 | 40.68549 | 50.44311 | 7447 ft | 309 kts | 13° |
| 2026-04-29 10:27 | 40.70655 | 50.44976 | 7724 ft | 310 kts | 12° |
| 2026-04-29 10:28 | 40.72736 | 50.45619 | 7995 ft | 310 kts | 12° |
| 2026-04-29 10:28 | 40.74852 | 50.46274 | 8276 ft | 310 kts | 12° |
| 2026-04-29 10:28 | 40.76949 | 50.46928 | 8553 ft | 310 kts | 12° |
| 2026-04-29 10:28 | 40.79048 | 50.47580 | 8827 ft | 310 kts | 12° |
| 2026-04-29 10:29 | 40.81134 | 50.48230 | 9095 ft | 311 kts | 12° |
| 2026-04-29 10:29 | 40.83229 | 50.48883 | 9365 ft | 311 kts | 12° |
| 2026-04-29 10:29 | 40.85337 | 50.49539 | 9639 ft | 311 kts | 12° |
| 2026-04-29 10:29 | 40.87467 | 50.50201 | 9917 ft | 311 kts | 12° |
| 2026-04-29 10:30 | 40.89568 | 50.50856 | 10191 ft | 311 kts | 12° |
| 2026-04-29 10:30 | 40.91679 | 50.51514 | 10468 ft | 311 kts | 12° |
| 2026-04-29 10:30 | 40.93774 | 50.52168 | 10742 ft | 311 kts | 12° |
| 2026-04-29 10:30 | 40.95871 | 50.52826 | 11014 ft | 311 kts | 12° |
| 2026-04-29 10:31 | 40.97991 | 50.53491 | 11289 ft | 311 kts | 12° |
| 2026-04-29 10:31 | 41.00098 | 50.54150 | 11563 ft | 311 kts | 12° |
| 2026-04-29 10:31 | 41.02156 | 50.54868 | 11814 ft | 311 kts | 22° |
| 2026-04-29 10:31 | 41.03977 | 50.56432 | 12114 ft | 308 kts | 40° |
| 2026-04-29 10:32 | 41.05627 | 50.58176 | 12384 ft | 307 kts | 39° |
| 2026-04-29 10:32 | 41.07298 | 50.59923 | 12680 ft | 309 kts | 39° |
| 2026-04-29 10:32 | 41.08987 | 50.61688 | 13186 ft | 308 kts | 39° |
| 2026-04-29 10:32 | 41.10666 | 50.63438 | 13678 ft | 312 kts | 39° |
| 2026-04-29 10:33 | 41.12389 | 50.65237 | 14169 ft | 315 kts | 39° |
| 2026-04-29 10:33 | 41.14103 | 50.67028 | 14656 ft | 318 kts | 39° |
| 2026-04-29 10:33 | 41.15854 | 50.68858 | 15144 ft | 320 kts | 39° |
| 2026-04-29 10:33 | 41.17607 | 50.70689 | 15627 ft | 322 kts | 40° |
| 2026-04-29 10:34 | 41.19341 | 50.72504 | 16100 ft | 323 kts | 40° |
| 2026-04-29 10:34 | 41.21117 | 50.74362 | 16584 ft | 325 kts | 40° |
| 2026-04-29 10:34 | 41.22888 | 50.76220 | 17063 ft | 325 kts | 40° |
| 2026-04-29 10:34 | 41.24654 | 50.78073 | 17532 ft | 326 kts | 40° |
| 2026-04-29 10:35 | 41.26447 | 50.79953 | 18014 ft | 326 kts | 40° |
| 2026-04-29 10:35 | 41.28199 | 50.81794 | 18484 ft | 326 kts | 40° |
| 2026-04-29 10:35 | 41.29992 | 50.83675 | 18965 ft | 325 kts | 40° |
| 2026-04-29 10:35 | 41.31754 | 50.85529 | 19440 ft | 324 kts | 40° |
| 2026-04-29 10:36 | 41.33502 | 50.87368 | 19913 ft | 323 kts | 40° |
| 2026-04-29 10:36 | 41.35270 | 50.89232 | 20391 ft | 321 kts | 40° |
| 2026-04-29 10:36 | 41.37009 | 50.91061 | 20862 ft | 319 kts | 40° |
| 2026-04-29 10:36 | 41.38726 | 50.92870 | 21328 ft | 316 kts | 40° |
| 2026-04-29 10:37 | 41.40439 | 50.94678 | 21802 ft | 313 kts | 40° |
| 2026-04-29 10:37 | 41.42128 | 50.96464 | 22268 ft | 310 kts | 40° |
| 2026-04-29 10:37 | 41.43809 | 50.98239 | 22732 ft | 306 kts | 40° |
| 2026-04-29 10:37 | 41.45465 | 50.99989 | 23199 ft | 302 kts | 40° |
| 2026-04-29 10:38 | 41.47080 | 51.01699 | 23660 ft | 297 kts | 40° |
| 2026-04-29 10:38 | 41.48684 | 51.03394 | 24116 ft | 291 kts | 41° |
| 2026-04-29 10:38 | 41.50240 | 51.05039 | 24571 ft | 285 kts | 41° |
| 2026-04-29 10:38 | 41.51767 | 51.06658 | 25030 ft | 278 kts | 41° |
| 2026-04-29 10:39 | 41.53256 | 51.08235 | 25492 ft | 271 kts | 41° |
| 2026-04-29 10:39 | 41.54717 | 51.09784 | 25951 ft | 262 kts | 42° |
| 2026-04-29 10:39 | 41.56111 | 51.11263 | 26407 ft | 257 kts | 43° |
| 2026-04-29 10:39 | 41.57514 | 51.12758 | 26702 ft | 261 kts | 43° |
| 2026-04-29 10:40 | 41.58947 | 51.14288 | 27007 ft | 265 kts | 43° |
| 2026-04-29 10:40 | 41.60399 | 51.15835 | 27304 ft | 269 kts | 43° |
| 2026-04-29 10:40 | 41.61853 | 51.17381 | 27600 ft | 272 kts | 43° |
| 2026-04-29 10:40 | 41.63341 | 51.18966 | 27900 ft | 276 kts | 43° |
| 2026-04-29 10:41 | 41.64850 | 51.20573 | 28205 ft | 279 kts | 43° |
| 2026-04-29 10:41 | 41.66376 | 51.22202 | 28501 ft | 282 kts | 43° |
| 2026-04-29 10:41 | 41.67908 | 51.23838 | 28794 ft | 286 kts | 43° |
| 2026-04-29 10:41 | 41.69474 | 51.25509 | 29094 ft | 289 kts | 43° |
| 2026-04-29 10:42 | 41.71054 | 51.27201 | 29397 ft | 292 kts | 43° |
| 2026-04-29 10:42 | 41.72638 | 51.28891 | 29690 ft | 295 kts | 44° |
| 2026-04-29 10:42 | 41.74235 | 51.30599 | 29986 ft | 297 kts | 44° |
| 2026-04-29 10:42 | 41.75867 | 51.32348 | 30290 ft | 299 kts | 44° |
| 2026-04-29 10:43 | 41.77497 | 51.34098 | 30586 ft | 302 kts | 44° |
| 2026-04-29 10:43 | 41.79137 | 51.35860 | 30887 ft | 304 kts | 43° |
| 2026-04-29 10:43 | 41.80776 | 51.37617 | 31191 ft | 306 kts | 43° |
| 2026-04-29 10:43 | 41.82426 | 51.39390 | 31501 ft | 307 kts | 43° |
| 2026-04-29 10:44 | 41.84116 | 51.41205 | 31804 ft | 308 kts | 43° |
| 2026-04-29 10:44 | 41.85789 | 51.42999 | 32113 ft | 309 kts | 43° |
| 2026-04-29 10:44 | 41.87465 | 51.44801 | 32417 ft | 311 kts | 43° |
| 2026-04-29 10:44 | 41.89138 | 51.46600 | 32724 ft | 311 kts | 43° |
| 2026-04-29 10:45 | 41.90830 | 51.48427 | 33030 ft | 311 kts | 42° |
| 2026-04-29 10:45 | 41.92513 | 51.50241 | 33333 ft | 312 kts | 42° |
| 2026-04-29 10:45 | 41.94207 | 51.52068 | 33623 ft | 312 kts | 42° |
| 2026-04-29 10:45 | 41.95896 | 51.53893 | 33923 ft | 311 kts | 42° |
| 2026-04-29 10:46 | 41.97564 | 51.55692 | 34227 ft | 310 kts | 42° |
| 2026-04-29 10:46 | 41.99249 | 51.57512 | 34469 ft | 309 kts | 42° |
| 2026-04-29 10:46 | 42.00898 | 51.59298 | 34689 ft | 308 kts | 42° |
| 2026-04-29 10:46 | 42.02565 | 51.61105 | 34904 ft | 306 kts | 41° |
| 2026-04-29 10:47 | 42.04208 | 51.62884 | 35121 ft | 303 kts | 41° |
| 2026-04-29 10:47 | 42.05833 | 51.64641 | 35335 ft | 300 kts | 41° |
| 2026-04-29 10:47 | 42.07455 | 51.66402 | 35552 ft | 297 kts | 41° |
| 2026-04-29 10:47 | 42.09031 | 51.68115 | 35757 ft | 293 kts | 41° |
| 2026-04-29 10:48 | 42.10606 | 51.69822 | 35947 ft | 288 kts | 41° |
| 2026-04-29 10:48 | 42.12157 | 51.71514 | 36145 ft | 284 kts | 42° |
| 2026-04-29 10:48 | 42.13650 | 51.73248 | 36243 ft | 284 kts | 46° |
| 2026-04-29 10:48 | 42.15079 | 51.75106 | 36245 ft | 287 kts | 50° |
| 2026-04-29 10:49 | 42.16396 | 51.77119 | 36396 ft | 283 kts | 56° |
| 2026-04-29 10:49 | 42.17533 | 51.79227 | 36518 ft | 280 kts | 63° |
| 2026-04-29 10:49 | 42.18498 | 51.81505 | 36562 ft | 280 kts | 71° |
| 2026-04-29 10:49 | 42.19249 | 51.83916 | 36632 ft | 278 kts | 79° |
| 2026-04-29 10:50 | 42.19747 | 51.86390 | 36738 ft | 273 kts | 88° |
| 2026-04-29 10:50 | 42.20131 | 51.88958 | 36409 ft | 299 kts | 77° |
| 2026-04-29 10:50 | 42.21044 | 51.91699 | 35488 ft | 357 kts | 49° |
| 2026-04-29 10:50 | 42.22903 | 51.94113 | 35031 ft | 387 kts | 41° |
| 2026-04-29 10:51 | 42.25277 | 51.95729 | 35213 ft | 386 kts | 13° |
| 2026-04-29 10:51 | 42.30682 | 51.96978 | 35162 ft | 403 kts | 8° |
| 2026-04-29 10:52 | 42.36234 | 51.98691 | 35161 ft | 417 kts | 28° |
| 2026-04-29 10:52 | 42.41050 | 52.03184 | 35166 ft | 429 kts | 40° |
| 2026-04-29 10:53 | 42.45764 | 52.08309 | 35154 ft | 444 kts | 41° |
| 2026-04-29 10:53 | 42.50639 | 52.13683 | 35155 ft | 458 kts | 41° |
| 2026-04-29 10:54 | 42.55603 | 52.19177 | 35151 ft | 472 kts | 41° |
| 2026-04-29 10:54 | 42.60745 | 52.24875 | 35140 ft | 485 kts | 41° |
| 2026-04-29 10:55 | 42.66034 | 52.30751 | 35177 ft | 496 kts | 41° |
| 2026-04-29 10:55 | 42.71403 | 52.36731 | 35377 ft | 502 kts | 41° |
| 2026-04-29 10:55 | 42.74075 | 52.39714 | 35491 ft | 504 kts | 41° |
| 2026-04-29 10:56 | 42.76807 | 52.42758 | 35612 ft | 506 kts | 41° |
| 2026-04-29 10:56 | 42.79510 | 52.45786 | 35720 ft | 508 kts | 40° |
| 2026-04-29 10:56 | 42.82243 | 52.48844 | 35842 ft | 510 kts | 40° |
| 2026-04-29 10:56 | 42.84977 | 52.51908 | 35955 ft | 511 kts | 40° |
| 2026-04-29 10:57 | 42.87737 | 52.55004 | 36063 ft | 513 kts | 40° |
| 2026-04-29 10:57 | 42.93230 | 52.61177 | 36301 ft | 516 kts | 40° |
| 2026-04-29 10:57 | 42.96006 | 52.64307 | 36426 ft | 517 kts | 40° |
| 2026-04-29 10:58 | 42.98768 | 52.67415 | 36572 ft | 518 kts | 41° |
| 2026-04-29 10:58 | 43.01539 | 52.70545 | 36703 ft | 519 kts | 41° |
| 2026-04-29 10:58 | 43.04319 | 52.73689 | 36843 ft | 520 kts | 41° |
| 2026-04-29 10:58 | 43.07075 | 52.76806 | 36974 ft | 521 kts | 41° |
| 2026-04-29 10:59 | 43.09865 | 52.79970 | 37103 ft | 522 kts | 41° |
| 2026-04-29 10:59 | 43.12659 | 52.83138 | 37208 ft | 522 kts | 41° |
| 2026-04-29 10:59 | 43.15441 | 52.86296 | 37323 ft | 523 kts | 40° |
| 2026-04-29 10:59 | 43.18221 | 52.89459 | 37452 ft | 523 kts | 40° |
| 2026-04-29 11:00 | 43.21042 | 52.92672 | 37585 ft | 523 kts | 40° |
| 2026-04-29 11:00 | 43.23830 | 52.95847 | 37700 ft | 524 kts | 40° |
| 2026-04-29 11:00 | 43.26601 | 52.99012 | 37823 ft | 524 kts | 40° |
| 2026-04-29 11:01 | 43.32224 | 53.05439 | 37884 ft | 529 kts | 40° |
| 2026-04-29 11:01 | 43.37874 | 53.11912 | 37871 ft | 534 kts | 40° |
| 2026-04-29 11:02 | 43.43585 | 53.18476 | 37881 ft | 540 kts | 40° |
| 2026-04-29 11:02 | 43.49390 | 53.25164 | 37879 ft | 545 kts | 40° |
| 2026-04-29 11:03 | 43.55187 | 53.31862 | 37885 ft | 551 kts | 40° |
| 2026-04-29 11:03 | 43.61062 | 53.38667 | 37889 ft | 554 kts | 40° |
| 2026-04-29 11:04 | 43.66980 | 53.45537 | 37887 ft | 557 kts | 40° |
| 2026-04-29 11:04 | 43.72901 | 53.52434 | 37889 ft | 556 kts | 40° |
| 2026-04-29 11:05 | 43.78757 | 53.59268 | 37881 ft | 553 kts | 40° |
| 2026-04-29 11:05 | 43.84562 | 53.66062 | 37888 ft | 551 kts | 40° |
| 2026-04-29 11:06 | 43.90420 | 53.72938 | 37892 ft | 550 kts | 40° |
| 2026-04-29 11:06 | 43.96250 | 53.79800 | 37881 ft | 549 kts | 40° |
| 2026-04-29 11:07 | 44.02032 | 53.86621 | 37895 ft | 548 kts | 40° |
| 2026-04-29 11:07 | 44.07847 | 53.93503 | 37897 ft | 547 kts | 40° |
| 2026-04-29 11:08 | 44.13604 | 54.00331 | 37888 ft | 547 kts | 40° |
| 2026-04-29 11:08 | 44.19378 | 54.07201 | 37883 ft | 546 kts | 40° |
| 2026-04-29 11:09 | 44.25118 | 54.14046 | 37877 ft | 545 kts | 40° |
| 2026-04-29 11:09 | 44.30875 | 54.20927 | 37889 ft | 544 kts | 40° |
| 2026-04-29 11:10 | 44.36611 | 54.27801 | 37880 ft | 544 kts | 40° |
| 2026-04-29 11:10 | 44.42302 | 54.34647 | 37876 ft | 543 kts | 40° |
| 2026-04-29 11:11 | 44.48006 | 54.41520 | 37879 ft | 543 kts | 40° |
| 2026-04-29 11:11 | 44.53742 | 54.48455 | 37885 ft | 543 kts | 40° |
| 2026-04-29 11:12 | 44.59417 | 54.55333 | 37883 ft | 543 kts | 40° |
| 2026-04-29 11:12 | 44.65113 | 54.62255 | 37880 ft | 543 kts | 40° |
| 2026-04-29 11:13 | 44.70830 | 54.69082 | 37871 ft | 541 kts | 49° |
| 2026-04-29 11:13 | 44.76234 | 54.76393 | 37886 ft | 541 kts | 43° |
| 2026-04-29 11:14 | 44.81794 | 54.83543 | 37874 ft | 541 kts | 42° |
| 2026-04-29 11:14 | 44.87317 | 54.90650 | 37883 ft | 541 kts | 42° |
| 2026-04-29 11:15 | 44.92866 | 54.97813 | 37880 ft | 542 kts | 42° |
| 2026-04-29 11:15 | 44.98441 | 55.05028 | 37882 ft | 542 kts | 42° |
| 2026-04-29 11:16 | 45.03975 | 55.12207 | 37892 ft | 542 kts | 42° |
| 2026-04-29 11:16 | 45.09561 | 55.19344 | 37870 ft | 543 kts | 37° |
| 2026-04-29 11:16 | 45.12367 | 55.22819 | 37833 ft | 543 kts | 49° |
| 2026-04-29 11:17 | 45.14836 | 55.26839 | 37897 ft | 541 kts | 46° |
| 2026-04-29 11:17 | 45.20163 | 55.34384 | 37889 ft | 541 kts | 44° |
| 2026-04-29 11:18 | 45.25482 | 55.41852 | 37891 ft | 542 kts | 44° |
| 2026-04-29 11:18 | 45.30812 | 55.49352 | 37889 ft | 542 kts | 44° |
| 2026-04-29 11:19 | 45.36140 | 55.56875 | 37898 ft | 542 kts | 44° |
| 2026-04-29 11:19 | 45.41483 | 55.64436 | 37894 ft | 543 kts | 44° |
| 2026-04-29 11:20 | 45.46828 | 55.72018 | 37889 ft | 542 kts | 45° |
| 2026-04-29 11:20 | 45.52141 | 55.79581 | 37893 ft | 542 kts | 45° |
| 2026-04-29 11:21 | 45.57453 | 55.87162 | 37892 ft | 543 kts | 45° |
| 2026-04-29 11:21 | 45.62780 | 55.94787 | 37897 ft | 543 kts | 45° |
| 2026-04-29 11:22 | 45.68097 | 56.02419 | 37898 ft | 543 kts | 45° |
| 2026-04-29 11:22 | 45.73377 | 56.10024 | 37896 ft | 543 kts | 45° |
| 2026-04-29 11:23 | 45.78712 | 56.17723 | 37908 ft | 544 kts | 45° |
| 2026-04-29 11:23 | 45.83998 | 56.25376 | 37903 ft | 544 kts | 45° |
| 2026-04-29 11:24 | 45.89339 | 56.33134 | 37899 ft | 545 kts | 45° |
| 2026-04-29 11:24 | 45.94610 | 56.40804 | 37908 ft | 545 kts | 44° |
| 2026-04-29 11:25 | 45.99915 | 56.48560 | 37907 ft | 545 kts | 44° |
| 2026-04-29 11:25 | 46.05255 | 56.56376 | 37915 ft | 546 kts | 45° |
| 2026-04-29 11:26 | 46.13175 | 56.68018 | 37909 ft | 546 kts | 45° |
| 2026-04-29 11:26 | 46.18475 | 56.75841 | 37913 ft | 546 kts | 45° |
| 2026-04-29 11:27 | 46.23770 | 56.83678 | 37908 ft | 545 kts | 45° |
| 2026-04-29 11:27 | 46.29055 | 56.91516 | 37912 ft | 545 kts | 45° |
| 2026-04-29 11:28 | 46.34294 | 56.99318 | 37918 ft | 545 kts | 45° |
| 2026-04-29 11:28 | 46.39592 | 57.07228 | 37919 ft | 545 kts | 45° |
| 2026-04-29 11:29 | 46.44847 | 57.15097 | 37924 ft | 545 kts | 45° |
| 2026-04-29 11:29 | 46.50075 | 57.22947 | 37923 ft | 546 kts | 45° |
| 2026-04-29 11:30 | 46.55342 | 57.30880 | 37922 ft | 546 kts | 45° |
| 2026-04-29 11:30 | 46.60575 | 57.38782 | 37923 ft | 546 kts | 45° |
| 2026-04-29 11:31 | 46.65854 | 57.46788 | 37931 ft | 546 kts | 45° |
| 2026-04-29 11:31 | 46.71070 | 57.54713 | 37940 ft | 547 kts | 45° |
| 2026-04-29 11:32 | 46.76327 | 57.62724 | 37940 ft | 547 kts | 45° |
| 2026-04-29 11:32 | 46.81555 | 57.70719 | 37935 ft | 547 kts | 46° |
| 2026-04-29 11:33 | 46.86800 | 57.78757 | 37930 ft | 548 kts | 46° |
| 2026-04-29 11:33 | 46.92052 | 57.86839 | 37930 ft | 548 kts | 45° |
| 2026-04-29 11:34 | 46.97247 | 57.94857 | 37930 ft | 548 kts | 45° |
| 2026-04-29 11:34 | 47.02499 | 58.02982 | 37931 ft | 548 kts | 45° |
| 2026-04-29 11:35 | 47.07720 | 58.11088 | 37936 ft | 548 kts | 45° |
| 2026-04-29 11:35 | 47.12930 | 58.19199 | 37934 ft | 548 kts | 45° |
| 2026-04-29 11:36 | 47.18142 | 58.27341 | 37934 ft | 548 kts | 45° |
| 2026-04-29 11:36 | 47.23348 | 58.35493 | 37937 ft | 548 kts | 45° |
| 2026-04-29 11:37 | 47.28530 | 58.43637 | 37939 ft | 548 kts | 45° |
| 2026-04-29 11:37 | 47.33738 | 58.51846 | 37942 ft | 548 kts | 45° |
| 2026-04-29 11:38 | 47.38935 | 58.60065 | 37946 ft | 548 kts | 45° |
| 2026-04-29 11:38 | 47.44112 | 58.68272 | 37941 ft | 549 kts | 46° |
| 2026-04-29 11:39 | 47.49285 | 58.76507 | 37942 ft | 548 kts | 46° |
| 2026-04-29 11:39 | 47.54478 | 58.84792 | 37946 ft | 548 kts | 46° |
| 2026-04-29 11:40 | 47.59638 | 58.93053 | 37943 ft | 548 kts | 46° |
| 2026-04-29 11:40 | 47.64800 | 59.01348 | 37947 ft | 548 kts | 46° |
| 2026-04-29 11:41 | 47.69964 | 59.09662 | 37944 ft | 548 kts | 46° |
| 2026-04-29 11:41 | 47.75099 | 59.17963 | 37945 ft | 548 kts | 46° |
| 2026-04-29 11:42 | 47.80206 | 59.26243 | 37934 ft | 522 kts | 46° |
| 2026-04-29 11:42 | 47.82573 | 59.30102 | 37918 ft | 490 kts | 46° |
| 2026-04-29 11:42 | 47.84797 | 59.33716 | 37894 ft | 462 kts | 46° |
| 2026-04-29 11:43 | 47.86874 | 59.37105 | 37893 ft | 434 kts | 46° |
| 2026-04-29 11:43 | 47.88871 | 59.40360 | 37900 ft | 408 kts | 45° |
| 2026-04-29 11:43 | 47.90642 | 59.43182 | 3571 ft | 330 kts | 46° |
| 2026-04-29 11:43 | 47.91484 | 59.44526 | 6476 ft | 172 kts | 47° |
| 2026-04-29 11:44 | 47.91499 | 59.44551 | 6474 ft | 171 kts | 47° |
| 2026-04-29 11:44 | 47.91601 | 59.44719 | 6426 ft | 173 kts | 47° |
| 2026-04-29 11:44 | 47.92465 | 59.46150 | 5678 ft | 192 kts | 47° |
| 2026-04-29 11:44 | 47.93366 | 59.47630 | 5158 ft | 196 kts | 47° |
| 2026-04-29 11:45 | 47.94270 | 59.49131 | 4627 ft | 198 kts | 47° |
| 2026-04-29 11:45 | 47.95165 | 59.50625 | 4296 ft | 189 kts | 47° |
| 2026-04-29 11:45 | 47.96115 | 59.51903 | 3758 ft | 190 kts | 19° |
| 2026-04-29 11:45 | 47.97284 | 59.52676 | 3470 ft | 180 kts | 34° |
| 2026-04-29 11:46 | 47.98082 | 59.54083 | 3055 ft | 178 kts | 63° |
| 2026-04-29 11:46 | 47.98760 | 59.55597 | 2590 ft | 179 kts | 50° |
| 2026-04-29 11:46 | 47.99601 | 59.56851 | 2463 ft | 160 kts | 37° |
| 2026-04-29 11:46 | 48.00515 | 59.57671 | 2180 ft | 158 kts | 22° |
| 2026-04-29 11:47 | 48.01641 | 59.58093 | 1585 ft | 173 kts | 5° |
| 2026-04-29 11:47 | 48.02789 | 59.57948 | 1430 ft | 161 kts | 346° |
| 2026-04-29 11:47 | 48.03810 | 59.57262 | 1152 ft | 158 kts | 329° |
| 2026-04-29 11:47 | 48.04683 | 59.56353 | 970 ft | 150 kts | 326° |
| 2026-04-29 11:48 | 48.05314 | 59.55473 | 804 ft | 157 kts | 281° |
| 2026-04-29 11:48 | 48.05260 | 59.54221 | 5388 ft | 132 kts | 256° |
| 2026-04-29 11:48 | 48.05022 | 59.52786 | 4942 ft | 144 kts | 253° |
| 2026-04-29 11:49 | 48.04697 | 59.51553 | 4953 ft | 120 kts | 240° |
| 2026-04-29 11:49 | 48.04180 | 59.50386 | 4371 ft | 153 kts | 240° |
| 2026-04-29 11:49 | 48.03814 | 59.48859 | 4500 ft | 171 kts | 257° |
| 2026-04-29 11:49 | 48.03549 | 59.46788 | 4220 ft | 231 kts | 267° |
| 2026-04-29 11:50 | 48.03967 | 59.44288 | 4109 ft | 270 kts | 298° |
| 2026-04-29 11:50 | 48.04018 | 59.41398 | 4051 ft | 302 kts | 249° |
| 2026-04-29 11:50 | 48.02949 | 59.38612 | 4018 ft | 331 kts | 232° |
| 2026-04-29 11:50 | 48.01257 | 59.36123 | 3803 ft | 356 kts | 218° |
| 2026-04-29 11:51 | 47.99117 | 59.34173 | 3586 ft | 364 kts | 204° |
| 2026-04-29 11:51 | 47.96757 | 59.33031 | 4410 ft | 356 kts | 191° |
| 2026-04-29 11:51 | 47.94305 | 59.32692 | 5443 ft | 361 kts | 178° |
| 2026-04-29 11:51 | 47.91808 | 59.33172 | 6500 ft | 363 kts | 166° |
| 2026-04-29 11:52 | 47.89452 | 59.34459 | 7629 ft | 369 kts | 153° |
| 2026-04-29 11:52 | 47.87318 | 59.36501 | 8842 ft | 374 kts | 141° |
| 2026-04-29 11:52 | 47.85474 | 59.39250 | 10074 ft | 379 kts | 129° |
| 2026-04-29 11:52 | 47.84023 | 59.42496 | 11285 ft | 382 kts | 122° |
| 2026-04-29 11:53 | 47.82108 | 59.45035 | 12399 ft | 376 kts | 160° |
| 2026-04-29 11:53 | 47.79628 | 59.45609 | 13683 ft | 366 kts | 185° |
| 2026-04-29 11:53 | 47.77303 | 59.44351 | 14894 ft | 359 kts | 208° |
| 2026-04-29 11:53 | 47.75392 | 59.42082 | 16102 ft | 352 kts | 232° |
| 2026-04-29 11:54 | 47.74426 | 59.38849 | 17346 ft | 346 kts | 259° |
| 2026-04-29 11:54 | 47.74570 | 59.35393 | 18582 ft | 341 kts | 285° |
| 2026-04-29 11:54 | 47.75776 | 59.32457 | 19828 ft | 338 kts | 312° |
| 2026-04-29 11:54 | 47.77745 | 59.30718 | 20987 ft | 338 kts | 336° |
| 2026-04-29 11:55 | 47.80000 | 59.30319 | 21434 ft | 359 kts | 2° |
| 2026-04-29 11:55 | 47.82400 | 59.31456 | 21998 ft | 374 kts | 27° |
| 2026-04-29 11:55 | 47.84513 | 59.33796 | 22568 ft | 384 kts | 40° |
| 2026-04-29 11:55 | 47.86438 | 59.36560 | 23101 ft | 392 kts | 44° |
| 2026-04-29 11:56 | 47.88340 | 59.39538 | 23646 ft | 400 kts | 45° |
| 2026-04-29 11:56 | 47.90243 | 59.42606 | 24201 ft | 407 kts | 46° |
| 2026-04-29 11:56 | 47.92167 | 59.45741 | 24750 ft | 413 kts | 46° |
| 2026-04-29 11:56 | 47.94091 | 59.48889 | 25288 ft | 418 kts | 46° |
| 2026-04-29 11:57 | 47.96047 | 59.52099 | 25822 ft | 423 kts | 46° |
| 2026-04-29 11:57 | 47.98026 | 59.55340 | 26361 ft | 427 kts | 46° |
| 2026-04-29 11:57 | 48.00030 | 59.58633 | 26847 ft | 433 kts | 46° |
| 2026-04-29 11:57 | 48.02080 | 59.62007 | 27315 ft | 438 kts | 45° |
| 2026-04-29 11:58 | 48.04131 | 59.65381 | 27784 ft | 443 kts | 46° |
| 2026-04-29 11:58 | 48.06199 | 59.68792 | 28228 ft | 448 kts | 46° |
| 2026-04-29 11:58 | 48.08286 | 59.72237 | 28692 ft | 452 kts | 46° |
| 2026-04-29 11:58 | 48.10399 | 59.75732 | 29151 ft | 456 kts | 46° |
| 2026-04-29 11:59 | 48.12535 | 59.79269 | 29603 ft | 459 kts | 46° |
| 2026-04-29 11:59 | 48.14664 | 59.82795 | 30060 ft | 462 kts | 46° |
| 2026-04-29 11:59 | 48.16831 | 59.86390 | 30517 ft | 465 kts | 46° |
| 2026-04-29 11:59 | 48.18987 | 59.89977 | 30976 ft | 467 kts | 46° |
| 2026-04-29 12:00 | 48.21183 | 59.93626 | 31444 ft | 469 kts | 46° |
| 2026-04-29 12:00 | 48.23370 | 59.97273 | 31910 ft | 470 kts | 46° |
| 2026-04-29 12:00 | 48.25553 | 60.00921 | 32369 ft | 472 kts | 46° |
| 2026-04-29 12:00 | 48.27745 | 60.04584 | 32835 ft | 473 kts | 46° |
| 2026-04-29 12:01 | 48.29930 | 60.08241 | 33301 ft | 473 kts | 46° |
| 2026-04-29 12:01 | 48.32121 | 60.11916 | 33768 ft | 474 kts | 45° |
| 2026-04-29 12:01 | 48.34294 | 60.15560 | 34227 ft | 474 kts | 46° |
| 2026-04-29 12:01 | 48.36497 | 60.19260 | 34666 ft | 473 kts | 46° |
| 2026-04-29 12:02 | 48.38695 | 60.22959 | 35056 ft | 473 kts | 46° |
| 2026-04-29 12:02 | 48.40863 | 60.26615 | 35428 ft | 472 kts | 46° |
| 2026-04-29 12:02 | 48.43058 | 60.30313 | 35805 ft | 471 kts | 46° |
| 2026-04-29 12:02 | 48.45206 | 60.33949 | 36169 ft | 470 kts | 46° |
| 2026-04-29 12:03 | 48.47362 | 60.37598 | 36568 ft | 469 kts | 46° |
| 2026-04-29 12:03 | 48.49522 | 60.41255 | 37060 ft | 467 kts | 46° |
| 2026-04-29 12:03 | 48.51681 | 60.44922 | 37501 ft | 465 kts | 46° |
| 2026-04-29 12:03 | 48.53820 | 60.48556 | 37899 ft | 463 kts | 46° |
| 2026-04-29 12:04 | 48.58144 | 60.55922 | 37981 ft | 478 kts | 46° |
| 2026-04-29 12:04 | 48.62594 | 60.63523 | 37983 ft | 494 kts | 46° |
| 2026-04-29 12:05 | 48.67209 | 60.71431 | 37975 ft | 509 kts | 47° |
| 2026-04-29 12:05 | 48.71923 | 60.79530 | 37970 ft | 522 kts | 47° |
| 2026-04-29 12:06 | 48.76776 | 60.87896 | 37978 ft | 535 kts | 47° |
| 2026-04-29 12:06 | 48.81697 | 60.96405 | 37966 ft | 547 kts | 47° |
| 2026-04-29 12:07 | 48.86744 | 61.05163 | 37964 ft | 557 kts | 47° |
| 2026-04-29 12:07 | 48.91869 | 61.14082 | 37963 ft | 562 kts | 47° |
| 2026-04-29 12:08 | 48.96979 | 61.23005 | 37969 ft | 563 kts | 47° |
| 2026-04-29 12:08 | 49.02110 | 61.31997 | 37971 ft | 564 kts | 47° |
| 2026-04-29 12:09 | 49.07258 | 61.41052 | 37974 ft | 564 kts | 47° |
| 2026-04-29 12:09 | 49.12380 | 61.50090 | 37962 ft | 564 kts | 47° |
| 2026-04-29 12:10 | 49.17489 | 61.59137 | 37959 ft | 563 kts | 47° |
| 2026-04-29 12:10 | 49.22583 | 61.68186 | 37943 ft | 563 kts | 48° |
| 2026-04-29 12:11 | 49.27643 | 61.77212 | 37943 ft | 563 kts | 48° |
| 2026-04-29 12:11 | 49.32715 | 61.86288 | 37954 ft | 562 kts | 48° |
| 2026-04-29 12:12 | 49.37797 | 61.95409 | 37943 ft | 562 kts | 48° |
| 2026-04-29 12:12 | 49.42852 | 62.04514 | 37949 ft | 561 kts | 48° |
| 2026-04-29 12:13 | 49.47876 | 62.13600 | 37950 ft | 562 kts | 48° |
| 2026-04-29 12:13 | 49.52922 | 62.22753 | 37957 ft | 562 kts | 48° |
| 2026-04-29 12:14 | 49.57951 | 62.31906 | 37952 ft | 562 kts | 48° |
| 2026-04-29 12:14 | 49.62991 | 62.41114 | 37949 ft | 562 kts | 48° |
| 2026-04-29 12:15 | 49.67992 | 62.50285 | 37957 ft | 562 kts | 48° |
| 2026-04-29 12:15 | 49.73016 | 62.59524 | 37953 ft | 561 kts | 48° |
| 2026-04-29 12:16 | 49.77982 | 62.68692 | 37954 ft | 561 kts | 49° |
| 2026-04-29 12:16 | 49.82980 | 62.77955 | 37949 ft | 560 kts | 49° |
| 2026-04-29 12:17 | 49.87946 | 62.87189 | 37946 ft | 559 kts | 49° |
| 2026-04-29 12:17 | 49.92918 | 62.96466 | 37950 ft | 560 kts | 49° |
| 2026-04-29 12:18 | 49.97860 | 63.05719 | 37953 ft | 559 kts | 49° |
| 2026-04-29 12:18 | 50.02817 | 63.15037 | 37962 ft | 559 kts | 49° |
| 2026-04-29 12:19 | 50.07735 | 63.24312 | 37959 ft | 559 kts | 49° |
| 2026-04-29 12:19 | 50.12684 | 63.33680 | 37959 ft | 559 kts | 49° |
| 2026-04-29 12:20 | 50.17604 | 63.43024 | 37979 ft | 559 kts | 49° |
| 2026-04-29 12:20 | 50.22523 | 63.52399 | 37963 ft | 559 kts | 49° |
| 2026-04-29 12:21 | 50.27416 | 63.61762 | 37972 ft | 559 kts | 49° |
| 2026-04-29 12:21 | 50.32322 | 63.71178 | 37967 ft | 559 kts | 50° |
| 2026-04-29 12:22 | 50.37191 | 63.80565 | 37967 ft | 559 kts | 50° |
| 2026-04-29 12:22 | 50.42097 | 63.90055 | 37973 ft | 559 kts | 50° |
| 2026-04-29 12:23 | 50.46960 | 63.99495 | 37975 ft | 559 kts | 50° |
| 2026-04-29 12:23 | 50.51821 | 64.08960 | 37977 ft | 559 kts | 50° |
| 2026-04-29 12:24 | 50.56657 | 64.18418 | 37978 ft | 559 kts | 50° |
| 2026-04-29 12:24 | 50.61510 | 64.27943 | 37979 ft | 560 kts | 50° |
| 2026-04-29 12:25 | 50.66351 | 64.37477 | 37985 ft | 559 kts | 50° |
| 2026-04-29 12:26 | 50.73620 | 64.51860 | 37986 ft | 559 kts | 50° |
| 2026-04-29 12:26 | 50.78457 | 64.61474 | 37989 ft | 559 kts | 50° |
| 2026-04-29 12:27 | 50.83244 | 64.71021 | 37980 ft | 558 kts | 51° |
| 2026-04-29 12:27 | 50.88038 | 64.80621 | 37987 ft | 558 kts | 51° |
| 2026-04-29 12:28 | 50.92825 | 64.90243 | 37989 ft | 558 kts | 51° |
| 2026-04-29 12:28 | 50.97631 | 64.99943 | 38003 ft | 558 kts | 51° |
| 2026-04-29 12:29 | 51.02391 | 65.09580 | 38000 ft | 558 kts | 51° |
| 2026-04-29 12:29 | 51.07160 | 65.19273 | 37999 ft | 557 kts | 51° |
| 2026-04-29 12:30 | 51.11923 | 65.28991 | 38000 ft | 557 kts | 51° |
| 2026-04-29 12:30 | 51.16663 | 65.38695 | 38006 ft | 557 kts | 51° |
| 2026-04-29 12:31 | 51.21414 | 65.48462 | 38011 ft | 558 kts | 51° |
| 2026-04-29 12:31 | 51.26127 | 65.58186 | 38013 ft | 558 kts | 51° |
| 2026-04-29 12:32 | 51.30867 | 65.68002 | 38010 ft | 558 kts | 52° |
| 2026-04-29 12:32 | 51.35574 | 65.77788 | 38013 ft | 558 kts | 52° |
| 2026-04-29 12:33 | 51.40290 | 65.87635 | 38016 ft | 557 kts | 52° |
| 2026-04-29 12:33 | 51.44992 | 65.97482 | 38019 ft | 557 kts | 52° |
| 2026-04-29 12:34 | 51.49678 | 66.07334 | 38020 ft | 557 kts | 52° |
| 2026-04-29 12:34 | 51.54361 | 66.17224 | 38019 ft | 557 kts | 52° |
| 2026-04-29 12:35 | 51.59020 | 66.27097 | 38020 ft | 557 kts | 52° |
| 2026-04-29 12:35 | 51.63696 | 66.37037 | 38021 ft | 557 kts | 52° |
| 2026-04-29 12:36 | 51.68345 | 66.46969 | 38022 ft | 557 kts | 52° |
| 2026-04-29 12:36 | 51.72957 | 66.56857 | 38022 ft | 557 kts | 52° |
| 2026-04-29 12:37 | 51.77607 | 66.66861 | 38023 ft | 557 kts | 53° |
| 2026-04-29 12:37 | 51.82237 | 66.76865 | 38021 ft | 556 kts | 53° |
| 2026-04-29 12:38 | 51.86865 | 66.86903 | 38023 ft | 556 kts | 53° |
| 2026-04-29 12:38 | 51.91457 | 66.96901 | 38023 ft | 556 kts | 53° |
| 2026-04-29 12:39 | 51.96074 | 67.06992 | 38024 ft | 556 kts | 53° |
| 2026-04-29 12:39 | 52.00648 | 67.17026 | 38017 ft | 556 kts | 53° |
| 2026-04-29 12:40 | 52.05217 | 67.27095 | 38025 ft | 556 kts | 53° |
| 2026-04-29 12:40 | 52.09767 | 67.37154 | 38023 ft | 556 kts | 53° |
| 2026-04-29 12:41 | 52.14306 | 67.47234 | 38024 ft | 555 kts | 53° |
| 2026-04-29 12:41 | 52.18856 | 67.57376 | 38013 ft | 555 kts | 53° |
| 2026-04-29 12:42 | 52.23403 | 67.67551 | 38021 ft | 555 kts | 53° |
| 2026-04-29 12:42 | 52.27919 | 67.77697 | 38019 ft | 555 kts | 53° |
| 2026-04-29 12:43 | 52.32449 | 67.87916 | 38022 ft | 556 kts | 53° |
| 2026-04-29 12:43 | 52.36940 | 67.98086 | 38020 ft | 556 kts | 53° |
| 2026-04-29 12:44 | 52.41446 | 68.08333 | 38023 ft | 556 kts | 53° |
| 2026-04-29 12:44 | 52.45934 | 68.18580 | 38027 ft | 556 kts | 53° |
| 2026-04-29 12:45 | 52.50434 | 68.28895 | 38024 ft | 556 kts | 53° |
| 2026-04-29 12:45 | 52.54898 | 68.39168 | 38030 ft | 556 kts | 53° |
| 2026-04-29 12:46 | 52.59365 | 68.49490 | 38037 ft | 556 kts | 53° |
| 2026-04-29 12:46 | 52.63809 | 68.59802 | 38043 ft | 556 kts | 53° |
| 2026-04-29 12:47 | 52.68268 | 68.70184 | 38035 ft | 555 kts | 54° |
| 2026-04-29 12:47 | 52.72694 | 68.80540 | 38039 ft | 554 kts | 54° |
| 2026-04-29 12:48 | 52.77132 | 68.90962 | 38039 ft | 554 kts | 54° |
| 2026-04-29 12:48 | 52.81557 | 69.01400 | 38045 ft | 554 kts | 54° |
| 2026-04-29 12:49 | 52.85948 | 69.11797 | 38045 ft | 554 kts | 54° |
| 2026-04-29 12:49 | 52.90364 | 69.22293 | 38047 ft | 555 kts | 54° |
| 2026-04-29 12:50 | 52.94730 | 69.32716 | 38046 ft | 555 kts | 54° |
| 2026-04-29 12:50 | 52.99107 | 69.43212 | 38052 ft | 555 kts | 54° |
| 2026-04-29 12:51 | 53.03473 | 69.53720 | 38064 ft | 555 kts | 54° |
| 2026-04-29 12:51 | 53.07825 | 69.64240 | 38054 ft | 554 kts | 54° |
| 2026-04-29 12:52 | 53.12175 | 69.74803 | 38045 ft | 553 kts | 55° |
| 2026-04-29 12:52 | 53.16502 | 69.85347 | 38043 ft | 553 kts | 55° |
| 2026-04-29 12:53 | 53.20814 | 69.95905 | 38048 ft | 553 kts | 55° |
| 2026-04-29 12:53 | 53.25114 | 70.06473 | 38046 ft | 553 kts | 55° |
| 2026-04-29 12:54 | 53.29416 | 70.17089 | 38050 ft | 554 kts | 55° |
| 2026-04-29 12:54 | 53.33691 | 70.27689 | 38052 ft | 554 kts | 55° |
| 2026-04-29 12:55 | 53.37966 | 70.38327 | 38052 ft | 554 kts | 55° |
| 2026-04-29 12:55 | 53.42264 | 70.49073 | 38051 ft | 553 kts | 55° |
| 2026-04-29 12:56 | 53.46497 | 70.59699 | 38054 ft | 552 kts | 55° |
| 2026-04-29 12:56 | 53.50752 | 70.70425 | 38050 ft | 552 kts | 56° |
| 2026-04-29 12:57 | 53.54965 | 70.81091 | 38051 ft | 552 kts | 56° |
| 2026-04-29 12:57 | 53.59203 | 70.91864 | 38047 ft | 553 kts | 56° |
| 2026-04-29 12:58 | 53.63400 | 71.02584 | 38046 ft | 552 kts | 56° |
| 2026-04-29 12:58 | 53.67594 | 71.13339 | 38046 ft | 552 kts | 56° |
| 2026-04-29 12:59 | 53.71784 | 71.24128 | 38047 ft | 552 kts | 56° |
| 2026-04-29 12:59 | 53.75977 | 71.34978 | 38042 ft | 552 kts | 56° |
| 2026-04-29 13:00 | 53.80138 | 71.45785 | 38043 ft | 551 kts | 56° |
| 2026-04-29 13:00 | 53.84318 | 71.56694 | 38048 ft | 552 kts | 56° |
| 2026-04-29 13:01 | 53.88462 | 71.67550 | 38042 ft | 552 kts | 57° |
| 2026-04-29 13:01 | 53.92595 | 71.78434 | 38042 ft | 552 kts | 57° |
| 2026-04-29 13:02 | 53.96749 | 71.89408 | 38041 ft | 553 kts | 57° |
| 2026-04-29 13:02 | 54.00851 | 72.00298 | 38062 ft | 539 kts | 57° |
| 2026-04-29 13:02 | 54.02829 | 72.05561 | 37651 ft | 519 kts | 57° |
| 2026-04-29 13:03 | 54.04724 | 72.10616 | 36878 ft | 507 kts | 58° |
| 2026-04-29 13:03 | 54.06583 | 72.15591 | 36244 ft | 497 kts | 58° |
| 2026-04-29 13:03 | 54.08414 | 72.20497 | 35617 ft | 487 kts | 58° |
| 2026-04-29 13:03 | 54.10199 | 72.25285 | 34980 ft | 478 kts | 58° |
| 2026-04-29 13:04 | 54.11957 | 72.30015 | 34238 ft | 470 kts | 58° |
| 2026-04-29 13:04 | 54.13669 | 72.34644 | 33336 ft | 459 kts | 58° |
| 2026-04-29 13:04 | 54.15347 | 72.39175 | 32482 ft | 440 kts | 58° |
| 2026-04-29 13:04 | 54.17267 | 72.43004 | 31640 ft | 423 kts | 36° |
| 2026-04-29 13:05 | 54.19748 | 72.45386 | 30896 ft | 405 kts | 24° |
| 2026-04-29 13:05 | 54.22171 | 72.47617 | 30069 ft | 394 kts | 28° |
| 2026-04-29 13:05 | 54.24489 | 72.50036 | 29216 ft | 384 kts | 30° |
| 2026-04-29 13:05 | 54.26712 | 72.52434 | 28381 ft | 376 kts | 31° |
| 2026-04-29 13:06 | 54.28863 | 72.54787 | 27555 ft | 368 kts | 31° |
| 2026-04-29 13:06 | 54.30994 | 72.57127 | 26687 ft | 363 kts | 31° |
| 2026-04-29 13:06 | 54.33096 | 72.59444 | 25675 ft | 359 kts | 31° |
| 2026-04-29 13:06 | 54.35147 | 72.61706 | 24677 ft | 354 kts | 30° |
| 2026-04-29 13:07 | 54.37182 | 72.63959 | 23681 ft | 349 kts | 30° |
| 2026-04-29 13:07 | 54.39192 | 72.66180 | 22674 ft | 346 kts | 31° |
| 2026-04-29 13:07 | 54.41202 | 72.68409 | 21378 ft | 351 kts | 31° |
| 2026-04-29 13:07 | 54.43248 | 72.70681 | 20103 ft | 352 kts | 31° |
| 2026-04-29 13:08 | 54.45275 | 72.72932 | 18849 ft | 352 kts | 30° |
| 2026-04-29 13:08 | 54.47317 | 72.75200 | 17597 ft | 351 kts | 31° |
| 2026-04-29 13:08 | 54.49320 | 72.77419 | 16376 ft | 349 kts | 31° |
| 2026-04-29 13:08 | 54.51343 | 72.79662 | 15132 ft | 347 kts | 32° |
| 2026-04-29 13:09 | 54.53353 | 72.81900 | 13887 ft | 344 kts | 32° |
| 2026-04-29 13:09 | 54.55306 | 72.84086 | 12666 ft | 340 kts | 32° |
| 2026-04-29 13:09 | 54.57265 | 72.86289 | 11424 ft | 336 kts | 32° |
| 2026-04-29 13:09 | 54.59200 | 72.88459 | 10180 ft | 332 kts | 32° |
| 2026-04-29 13:10 | 54.61117 | 72.90483 | 8957 ft | 326 kts | 23° |
| 2026-04-29 13:10 | 54.63234 | 72.91440 | 7801 ft | 316 kts | 8° |
| 2026-04-29 13:10 | 54.65354 | 72.92197 | 6615 ft | 312 kts | 10° |
| 2026-04-29 13:10 | 54.67428 | 72.92938 | 5491 ft | 305 kts | 10° |
| 2026-04-29 13:11 | 54.69430 | 72.93662 | 4794 ft | 288 kts | 11° |
| 2026-04-29 13:11 | 54.71320 | 72.94347 | 4090 ft | 272 kts | 11° |
| 2026-04-29 13:11 | 54.73119 | 72.95002 | 3334 ft | 262 kts | 12° |
| 2026-04-29 13:11 | 54.74839 | 72.95630 | 2977 ft | 237 kts | 12° |
| 2026-04-29 13:12 | 54.76338 | 72.96178 | 2925 ft | 210 kts | 12° |
| 2026-04-29 13:12 | 54.77713 | 72.96684 | 3009 ft | 189 kts | 11° |
| 2026-04-29 13:12 | 54.78946 | 72.97137 | 3045 ft | 175 kts | 11° |
| 2026-04-29 13:12 | 54.80092 | 72.97557 | 3070 ft | 163 kts | 11° |
| 2026-04-29 13:13 | 54.81193 | 72.97959 | 3070 ft | 159 kts | 11° |
| 2026-04-29 13:13 | 54.82270 | 72.98353 | 3073 ft | 157 kts | 11° |
| 2026-04-29 13:13 | 54.83338 | 72.98743 | 3075 ft | 155 kts | 11° |
| 2026-04-29 13:13 | 54.84387 | 72.99127 | 3076 ft | 153 kts | 11° |
| 2026-04-29 13:14 | 54.85418 | 72.99504 | 3076 ft | 152 kts | 11° |
| 2026-04-29 13:14 | 54.86453 | 72.99885 | 3083 ft | 155 kts | 11° |
| 2026-04-29 13:14 | 54.87530 | 73.00281 | 3099 ft | 162 kts | 11° |
| 2026-04-29 13:14 | 54.88668 | 73.00701 | 3104 ft | 169 kts | 11° |
| 2026-04-29 13:15 | 54.89843 | 73.01133 | 3102 ft | 175 kts | 11° |
| 2026-04-29 13:15 | 54.91045 | 73.01575 | 3092 ft | 180 kts | 11° |
| 2026-04-29 13:15 | 54.92281 | 73.02030 | 3088 ft | 183 kts | 11° |
| 2026-04-29 13:15 | 54.93516 | 73.02486 | 3085 ft | 185 kts | 11° |
| 2026-04-29 13:16 | 54.94789 | 73.02954 | 3084 ft | 186 kts | 11° |
| 2026-04-29 13:16 | 54.96020 | 73.03411 | 3106 ft | 175 kts | 11° |
| 2026-04-29 13:16 | 54.97198 | 73.03846 | 3069 ft | 168 kts | 11° |
| 2026-04-29 13:16 | 54.98312 | 73.04256 | 3066 ft | 161 kts | 11° |
| 2026-04-29 13:17 | 54.99388 | 73.04654 | 3073 ft | 156 kts | 11° |
| 2026-04-29 13:17 | 55.00433 | 73.05039 | 3071 ft | 154 kts | 10° |
| 2026-04-29 13:17 | 55.01531 | 73.05441 | 3077 ft | 164 kts | 11° |
| 2026-04-29 13:17 | 55.02651 | 73.05856 | 3095 ft | 170 kts | 11° |
| 2026-04-29 13:18 | 55.03834 | 73.06293 | 3097 ft | 175 kts | 11° |
| 2026-04-29 13:18 | 55.05044 | 73.06743 | 3098 ft | 180 kts | 11° |
| 2026-04-29 13:18 | 55.06281 | 73.07203 | 3094 ft | 183 kts | 11° |
| 2026-04-29 13:18 | 55.07528 | 73.07666 | 3087 ft | 186 kts | 11° |
| 2026-04-29 13:19 | 55.08799 | 73.08137 | 3086 ft | 188 kts | 11° |
| 2026-04-29 13:19 | 55.10086 | 73.08611 | 3088 ft | 189 kts | 11° |
| 2026-04-29 13:19 | 55.11366 | 73.09075 | 3082 ft | 189 kts | 11° |
| 2026-04-29 13:19 | 55.12670 | 73.09542 | 3085 ft | 190 kts | 10° |
| 2026-04-29 13:20 | 55.13972 | 73.10002 | 3085 ft | 190 kts | 10° |
| 2026-04-29 13:20 | 55.15274 | 73.10455 | 3085 ft | 191 kts | 10° |
| 2026-04-29 13:20 | 55.16570 | 73.10900 | 3082 ft | 191 kts | 9° |
| 2026-04-29 13:20 | 55.17874 | 73.11341 | 3078 ft | 191 kts | 9° |
| 2026-04-29 13:21 | 55.19182 | 73.11776 | 3080 ft | 191 kts | 9° |
| 2026-04-29 13:21 | 55.20468 | 73.12350 | 3066 ft | 191 kts | 29° |
| 2026-04-29 13:21 | 55.21330 | 73.14005 | 3086 ft | 183 kts | 75° |
| 2026-04-29 13:21 | 55.21330 | 73.16120 | 3088 ft | 170 kts | 120° |
| 2026-04-29 13:22 | 55.20594 | 73.17619 | 3101 ft | 162 kts | 146° |
| 2026-04-29 13:22 | 55.19798 | 73.19037 | 3083 ft | 167 kts | 129° |
| 2026-04-29 13:22 | 55.19219 | 73.20820 | 3087 ft | 170 kts | 121° |
| 2026-04-29 13:22 | 55.18729 | 73.22723 | 3084 ft | 172 kts | 118° |
| 2026-04-29 13:23 | 55.18286 | 73.24658 | 3082 ft | 173 kts | 116° |
| 2026-04-29 13:23 | 55.17854 | 73.26644 | 3079 ft | 173 kts | 116° |
| 2026-04-29 13:23 | 55.17432 | 73.28624 | 3084 ft | 174 kts | 116° |
| 2026-04-29 13:23 | 55.17016 | 73.30586 | 3091 ft | 174 kts | 115° |
| 2026-04-29 13:24 | 55.16595 | 73.32579 | 3090 ft | 174 kts | 115° |
| 2026-04-29 13:24 | 55.16175 | 73.34571 | 3087 ft | 174 kts | 115° |
| 2026-04-29 13:24 | 55.15753 | 73.36566 | 3087 ft | 174 kts | 115° |
| 2026-04-29 13:24 | 55.15333 | 73.38558 | 3084 ft | 175 kts | 116° |
| 2026-04-29 13:25 | 55.14915 | 73.40529 | 3087 ft | 175 kts | 115° |
| 2026-04-29 13:25 | 55.14068 | 73.44528 | 3093 ft | 175 kts | 115° |
| 2026-04-29 13:25 | 55.13646 | 73.46509 | 3089 ft | 175 kts | 115° |
| 2026-04-29 13:26 | 55.13223 | 73.48500 | 3090 ft | 175 kts | 115° |
| 2026-04-29 13:26 | 55.12799 | 73.50498 | 3094 ft | 174 kts | 115° |
| 2026-04-29 13:26 | 55.12379 | 73.52470 | 3095 ft | 174 kts | 115° |
| 2026-04-29 13:26 | 55.11954 | 73.54475 | 3099 ft | 174 kts | 115° |
| 2026-04-29 13:27 | 55.11532 | 73.56447 | 3097 ft | 174 kts | 115° |
| 2026-04-29 13:27 | 55.11113 | 73.58416 | 3098 ft | 174 kts | 116° |
| 2026-04-29 13:27 | 55.10683 | 73.60424 | 3101 ft | 175 kts | 116° |
| 2026-04-29 13:27 | 55.10180 | 73.62302 | 3085 ft | 169 kts | 137° |
| 2026-04-29 13:28 | 55.09206 | 73.63158 | 3103 ft | 156 kts | 180° |
| 2026-04-29 13:28 | 55.08140 | 73.62824 | 3110 ft | 155 kts | 195° |
| 2026-04-29 13:28 | 55.07093 | 73.62352 | 3100 ft | 156 kts | 195° |
| 2026-04-29 13:28 | 55.06048 | 73.61839 | 3100 ft | 157 kts | 196° |
| 2026-04-29 13:29 | 55.04986 | 73.61289 | 3099 ft | 158 kts | 197° |
| 2026-04-29 13:29 | 55.03945 | 73.60737 | 3100 ft | 158 kts | 197° |
| 2026-04-29 13:29 | 55.02880 | 73.60169 | 3101 ft | 159 kts | 197° |
| 2026-04-29 13:29 | 55.01821 | 73.59602 | 3100 ft | 159 kts | 197° |
| 2026-04-29 13:30 | 55.00790 | 73.58902 | 3034 ft | 163 kts | 214° |
| 2026-04-29 13:30 | 55.00130 | 73.57207 | 2737 ft | 183 kts | 252° |
| 2026-04-29 13:30 | 54.99894 | 73.54993 | 2449 ft | 192 kts | 253° |
| 2026-04-29 13:30 | 54.99588 | 73.52687 | 2157 ft | 195 kts | 252° |
| 2026-04-29 13:31 | 54.99291 | 73.50430 | 2103 ft | 188 kts | 252° |
| 2026-04-29 13:31 | 54.99044 | 73.48574 | 2092 ft | 182 kts | 252° |
| 2026-04-29 13:31 | 54.98763 | 73.46466 | 2091 ft | 177 kts | 252° |
| 2026-04-29 13:31 | 54.98482 | 73.44366 | 1928 ft | 183 kts | 252° |
| 2026-04-29 13:32 | 54.98222 | 73.42403 | 1581 ft | 196 kts | 253° |
| 2026-04-29 13:34 | 54.98054 | 73.41142 | 1357 ft | 201 kts | 253° |
| 2026-04-29 13:34 | 54.97735 | 73.38731 | 1000 ft | 205 kts | 254° |
| 2026-04-29 13:34 | 54.97425 | 73.36380 | 729 ft | 191 kts | 254° |
| 2026-04-29 13:35 | 54.97141 | 73.34249 | 463 ft | 168 kts | 254° |
| 2026-04-29 13:35 | 54.96893 | 73.32409 | 309 ft | 149 kts | 253° |
| 2026-04-29 13:35 | 54.96651 | 73.30788 | 292 ft | 128 kts | 257° |
| 2026-04-29 13:35 | 54.96521 | 73.29619 | 298 ft | 34 kts | 258° |
| 2026-04-29 13:36 | 54.96475 | 73.29363 | 298 ft | 21 kts | 244° |
| 2026-04-29 13:36 | 54.96409 | 73.29171 | 301 ft | 17 kts | 174° |
| 2026-04-29 13:36 | 54.96354 | 73.29145 | 301 ft | 8 kts | 354° |
| 2026-04-29 13:36 | 54.96379 | 73.29166 | 301 ft | 0 kts | 359° |
| 2026-04-29 13:37 | 54.96386 | 73.29166 | 301 ft | 0 kts | 357° |
| 2026-04-29 13:55 | 54.96387 | 73.29166 | 301 ft | 0 kts | 357° |
| 2026-04-29 13:55 | 54.96400 | 73.29165 | 301 ft | 4 kts | 358° |
| 2026-04-29 13:55 | 54.96445 | 73.29185 | 301 ft | 9 kts | 43° |
| 2026-04-29 13:55 | 54.96485 | 73.29327 | 298 ft | 17 kts | 72° |
| 2026-04-29 13:56 | 54.96522 | 73.29564 | 298 ft | 22 kts | 78° |
| 2026-04-29 13:56 | 54.96558 | 73.29873 | 294 ft | 29 kts | 76° |
| 2026-04-29 13:56 | 54.96601 | 73.30241 | 294 ft | 33 kts | 77° |
| 2026-04-29 13:56 | 54.96655 | 73.30660 | 291 ft | 38 kts | 77° |
| 2026-04-29 13:57 | 54.96714 | 73.31132 | 288 ft | 42 kts | 76° |
| 2026-04-29 13:57 | 54.96780 | 73.31654 | 288 ft | 45 kts | 81° |
| 2026-04-29 13:57 | 54.96852 | 73.32209 | 285 ft | 48 kts | 79° |
| 2026-04-29 13:57 | 54.96920 | 73.32714 | 283 ft | 24 kts | 79° |
| 2026-04-29 13:58 | 54.96957 | 73.32843 | 282 ft | 0 kts | 298° |
| 2026-04-29 13:58 | 54.96957 | 73.32841 | 282 ft | 0 kts | 281° |
| 2026-04-29 13:58 | 54.96957 | 73.32833 | 283 ft | 3 kts | 258° |
| 2026-04-29 13:58 | 54.96925 | 73.32600 | 284 ft | 39 kts | 255° |
| 2026-04-29 13:59 | 54.96814 | 73.31808 | 288 ft | 95 kts | 257° |
| 2026-04-29 13:59 | 54.96622 | 73.30357 | 298 ft | 149 kts | 253° |
| 2026-04-29 13:59 | 54.96324 | 73.28459 | 611 ft | 173 kts | 254° |
| 2026-04-29 13:59 | 54.96048 | 73.26369 | 1130 ft | 187 kts | 253° |
| 2026-04-29 14:00 | 54.95747 | 73.24049 | 1556 ft | 211 kts | 253° |
| 2026-04-29 14:00 | 54.95405 | 73.21451 | 2113 ft | 231 kts | 253° |
| 2026-04-29 14:00 | 54.95038 | 73.18622 | 2661 ft | 251 kts | 254° |
| 2026-04-29 14:00 | 54.94646 | 73.15548 | 3204 ft | 270 kts | 255° |
| 2026-04-29 14:01 | 54.94228 | 73.12272 | 3731 ft | 288 kts | 255° |
| 2026-04-29 14:01 | 54.93779 | 73.08773 | 4261 ft | 305 kts | 255° |
| 2026-04-29 14:01 | 54.93292 | 73.05106 | 4785 ft | 320 kts | 253° |
| 2026-04-29 14:01 | 54.92870 | 73.01233 | 5246 ft | 337 kts | 270° |
| 2026-04-29 14:02 | 54.93783 | 72.97468 | 5743 ft | 359 kts | 312° |
| 2026-04-29 14:02 | 54.96047 | 72.95688 | 6284 ft | 379 kts | 355° |
| 2026-04-29 14:02 | 54.98602 | 72.96722 | 6922 ft | 388 kts | 22° |
| 2026-04-29 14:02 | 55.01118 | 72.98603 | 7446 ft | 396 kts | 19° |
| 2026-04-29 14:03 | 55.03734 | 73.00129 | 7934 ft | 403 kts | 20° |
| 2026-04-29 14:03 | 55.05991 | 73.03025 | 8377 ft | 410 kts | 51° |
| 2026-04-29 14:03 | 55.07587 | 73.07098 | 8947 ft | 413 kts | 57° |
| 2026-04-29 14:03 | 55.09252 | 73.11252 | 9458 ft | 417 kts | 55° |
| 2026-04-29 14:04 | 55.10909 | 73.15404 | 9956 ft | 420 kts | 59° |
| 2026-04-29 14:04 | 55.11796 | 73.20162 | 10352 ft | 419 kts | 90° |
| 2026-04-29 14:04 | 55.11585 | 73.25199 | 10952 ft | 416 kts | 98° |
| 2026-04-29 14:04 | 55.11429 | 73.30250 | 11434 ft | 421 kts | 91° |
| 2026-04-29 14:05 | 55.11665 | 73.35339 | 11934 ft | 426 kts | 83° |
| 2026-04-29 14:05 | 55.12325 | 73.40391 | 12414 ft | 431 kts | 74° |
| 2026-04-29 14:05 | 55.13354 | 73.45325 | 12936 ft | 433 kts | 72° |
| 2026-04-29 14:05 | 55.13723 | 73.50464 | 13302 ft | 428 kts | 103° |
| 2026-04-29 14:06 | 55.12544 | 73.55045 | 13942 ft | 414 kts | 126° |
| 2026-04-29 14:06 | 55.11008 | 73.59299 | 14445 ft | 417 kts | 122° |
| 2026-04-29 14:06 | 55.09827 | 73.63853 | 14946 ft | 423 kts | 112° |
| 2026-04-29 14:06 | 55.09086 | 73.68834 | 15426 ft | 428 kts | 103° |
| 2026-04-29 14:07 | 55.08854 | 73.74070 | 15918 ft | 431 kts | 92° |
| 2026-04-29 14:07 | 55.08669 | 73.79207 | 16353 ft | 427 kts | 108° |
| 2026-04-29 14:07 | 55.07155 | 73.83369 | 16825 ft | 407 kts | 146° |
| 2026-04-29 14:07 | 55.04760 | 73.85753 | 17446 ft | 396 kts | 158° |
| 2026-04-29 14:08 | 55.02385 | 73.88219 | 17913 ft | 401 kts | 147° |
| 2026-04-29 14:08 | 55.00344 | 73.91584 | 18405 ft | 406 kts | 133° |
| 2026-04-29 14:08 | 54.98810 | 73.95669 | 18907 ft | 410 kts | 119° |
| 2026-04-29 14:08 | 54.97851 | 74.00371 | 19414 ft | 413 kts | 105° |
| 2026-04-29 14:09 | 54.97264 | 74.05218 | 19909 ft | 409 kts | 111° |
| 2026-04-29 14:09 | 54.95883 | 74.09344 | 20435 ft | 396 kts | 132° |
| 2026-04-29 14:09 | 54.94282 | 74.13292 | 20466 ft | 411 kts | 122° |
| 2026-04-29 14:09 | 54.93198 | 74.17952 | 20546 ft | 426 kts | 108° |
| 2026-04-29 14:10 | 54.92716 | 74.23144 | 20536 ft | 440 kts | 95° |
| 2026-04-29 14:10 | 54.92553 | 74.28494 | 20509 ft | 449 kts | 100° |
| 2026-04-29 14:10 | 54.91880 | 74.33737 | 20553 ft | 455 kts | 107° |
| 2026-04-29 14:10 | 54.91055 | 74.39101 | 20529 ft | 464 kts | 108° |
| 2026-04-29 14:11 | 54.90157 | 74.44518 | 20522 ft | 472 kts | 108° |
| 2026-04-29 14:11 | 54.89216 | 74.50043 | 20529 ft | 483 kts | 108° |
| 2026-04-29 14:11 | 54.88245 | 74.55720 | 20530 ft | 494 kts | 108° |
| 2026-04-29 14:11 | 54.87267 | 74.61419 | 20984 ft | 493 kts | 108° |
| 2026-04-29 14:12 | 54.86300 | 74.67136 | 21483 ft | 492 kts | 109° |
| 2026-04-29 14:12 | 54.85348 | 74.72794 | 21989 ft | 490 kts | 109° |
| 2026-04-29 14:12 | 54.84394 | 74.78422 | 22497 ft | 487 kts | 109° |
| 2026-04-29 14:12 | 54.83448 | 74.83999 | 22999 ft | 485 kts | 109° |
| 2026-04-29 14:13 | 54.82504 | 74.89532 | 23498 ft | 483 kts | 108° |
| 2026-04-29 14:13 | 54.81555 | 74.95087 | 24022 ft | 480 kts | 108° |
| 2026-04-29 14:13 | 54.80602 | 75.00643 | 24555 ft | 477 kts | 109° |
| 2026-04-29 14:13 | 54.79666 | 75.06099 | 25093 ft | 474 kts | 109° |
| 2026-04-29 14:14 | 54.78737 | 75.11496 | 25619 ft | 470 kts | 108° |
| 2026-04-29 14:14 | 54.77796 | 75.16921 | 26154 ft | 467 kts | 109° |
| 2026-04-29 14:14 | 54.76878 | 75.22245 | 26681 ft | 463 kts | 109° |
| 2026-04-29 14:14 | 54.75955 | 75.27535 | 27223 ft | 459 kts | 109° |
| 2026-04-29 14:15 | 54.75045 | 75.32758 | 27757 ft | 455 kts | 109° |
| 2026-04-29 14:15 | 54.74141 | 75.37929 | 28298 ft | 450 kts | 109° |
| 2026-04-29 14:15 | 54.73242 | 75.43066 | 28831 ft | 446 kts | 109° |
| 2026-04-29 14:15 | 54.72346 | 75.48150 | 29368 ft | 441 kts | 109° |
| 2026-04-29 14:16 | 54.71462 | 75.53174 | 29897 ft | 436 kts | 109° |
| 2026-04-29 14:16 | 54.70585 | 75.58124 | 30423 ft | 430 kts | 109° |
| 2026-04-29 14:16 | 54.69715 | 75.63018 | 30947 ft | 424 kts | 110° |
| 2026-04-29 14:16 | 54.68853 | 75.67884 | 31467 ft | 418 kts | 111° |
| 2026-04-29 14:17 | 54.68013 | 75.72597 | 31981 ft | 412 kts | 111° |
| 2026-04-29 14:17 | 54.67174 | 75.77300 | 32496 ft | 405 kts | 111° |
| 2026-04-29 14:17 | 54.66347 | 75.81911 | 33010 ft | 398 kts | 111° |
| 2026-04-29 14:17 | 54.65535 | 75.86437 | 33522 ft | 390 kts | 112° |
| 2026-04-29 14:18 | 54.64738 | 75.90867 | 34032 ft | 382 kts | 112° |
| 2026-04-29 14:18 | 54.63960 | 75.95184 | 34533 ft | 373 kts | 112° |
| 2026-04-29 14:18 | 54.63197 | 75.99412 | 34979 ft | 364 kts | 112° |
| 2026-04-29 14:18 | 54.62453 | 76.03487 | 35374 ft | 354 kts | 113° |
| 2026-04-29 14:19 | 54.61720 | 76.07484 | 35770 ft | 344 kts | 112° |
| 2026-04-29 14:19 | 54.61017 | 76.11298 | 36154 ft | 334 kts | 112° |
| 2026-04-29 14:19 | 54.60324 | 76.15060 | 36535 ft | 322 kts | 112° |
| 2026-04-29 14:19 | 54.59664 | 76.18630 | 36978 ft | 310 kts | 112° |
| 2026-04-29 14:20 | 54.59026 | 76.22095 | 37415 ft | 296 kts | 112° |
| 2026-04-29 14:20 | 54.58413 | 76.25356 | 37801 ft | 280 kts | 119° |
| 2026-04-29 14:20 | 54.57212 | 76.27682 | 36303 ft | 308 kts | 186° |
| 2026-04-29 14:20 | 54.57397 | 76.27908 | 26426 ft | 549 kts | 40° |
| 2026-04-29 14:21 | 54.57152 | 76.32633 | 18278 ft | 571 kts | 169° |
| 2026-04-29 14:21 | 54.56979 | 76.29794 | 8690 ft | 600 kts | 354° |
| 2026-04-29 14:21 | 54.57336 | 76.33598 | 6862 ft | 509 kts | 195° |
| 2026-04-29 14:21 | 54.58400 | 76.31627 | 3624 ft | 526 kts | 67° |
| 2026-04-29 14:22 | 54.56989 | 76.31977 | 1934 ft | 496 kts | 298° |
| 2026-04-29 14:22 | 54.58055 | 76.33950 | 838 ft | 450 kts | 168° |
| 2026-04-29 14:22 | 54.57340 | 76.33709 | 317 ft | 0 kts | 228° |